sensor_id;sensor_type;location;lat;lon;timestamp;P1;durP1;ratioP1;P2;durP2;ratioP2
43823;SDS011;29470;53.550;9.926;2023-07-09T00:02:17;5.40;;;2.80;;
43823;SDS011;29470;53.550;9.926;2023-07-09T00:07:21;6.25;;;2.83;;
43823;SDS011;29470;53.550;9.926;2023-07-09T00:12:27;5.10;;;2.90;;
43823;SDS011;29470;53.550;9.926;2023-07-09T00:17:32;5.70;;;3.20;;
43823;SDS011;29470;53.550;9.926;2023-07-09T00:22:35;6.75;;;2.80;;
43823;SDS011;29470;53.550;9.926;2023-07-09T00:27:38;5.72;;;2.55;;
43823;SDS011;29470;53.550;9.926;2023-07-09T00:32:43;7.10;;;3.30;;
43823;SDS011;29470;53.550;9.926;2023-07-09T00:37:46;5.78;;;3.05;;
43823;SDS011;29470;53.550;9.926;2023-07-09T00:42:51;6.05;;;3.55;;
43823;SDS011;29470;53.550;9.926;2023-07-09T00:47:58;6.57;;;3.13;;
43823;SDS011;29470;53.550;9.926;2023-07-09T00:53:04;6.83;;;3.07;;
43823;SDS011;29470;53.550;9.926;2023-07-09T00:58:13;5.20;;;3.20;;
43823;SDS011;29470;53.550;9.926;2023-07-09T01:03:21;6.57;;;3.10;;
43823;SDS011;29470;53.550;9.926;2023-07-09T01:08:31;3.30;;;2.63;;
43823;SDS011;29470;53.550;9.926;2023-07-09T01:13:35;5.07;;;2.95;;
43823;SDS011;29470;53.550;9.926;2023-07-09T01:18:42;5.43;;;3.15;;
43823;SDS011;29470;53.550;9.926;2023-07-09T01:23:47;4.53;;;2.60;;
43823;SDS011;29470;53.550;9.926;2023-07-09T01:28:52;3.58;;;2.78;;
43823;SDS011;29470;53.550;9.926;2023-07-09T01:33:55;5.47;;;3.15;;
43823;SDS011;29470;53.550;9.926;2023-07-09T01:39:00;7.90;;;2.75;;
43823;SDS011;29470;53.550;9.926;2023-07-09T01:44:05;4.55;;;2.72;;
43823;SDS011;29470;53.550;9.926;2023-07-09T01:49:09;7.65;;;2.97;;
43823;SDS011;29470;53.550;9.926;2023-07-09T01:54:13;4.28;;;3.00;;
43823;SDS011;29470;53.550;9.926;2023-07-09T01:59:17;5.03;;;2.70;;
43823;SDS011;29470;53.550;9.926;2023-07-09T02:04:22;5.07;;;2.90;;
43823;SDS011;29470;53.550;9.926;2023-07-09T02:09:30;5.45;;;2.70;;
43823;SDS011;29470;53.550;9.926;2023-07-09T02:14:32;4.45;;;3.55;;
43823;SDS011;29470;53.550;9.926;2023-07-09T02:19:36;4.43;;;3.00;;
43823;SDS011;29470;53.550;9.926;2023-07-09T02:24:40;5.55;;;2.65;;
43823;SDS011;29470;53.550;9.926;2023-07-09T02:29:43;4.55;;;3.00;;
43823;SDS011;29470;53.550;9.926;2023-07-09T02:34:46;5.22;;;3.30;;
43823;SDS011;29470;53.550;9.926;2023-07-09T02:39:52;5.30;;;3.28;;
43823;SDS011;29470;53.550;9.926;2023-07-09T02:44:55;4.18;;;2.65;;
43823;SDS011;29470;53.550;9.926;2023-07-09T02:50:01;9.30;;;3.13;;
43823;SDS011;29470;53.550;9.926;2023-07-09T02:55:06;8.52;;;3.00;;
43823;SDS011;29470;53.550;9.926;2023-07-09T03:00:09;4.50;;;2.60;;
43823;SDS011;29470;53.550;9.926;2023-07-09T03:05:13;4.50;;;3.00;;
43823;SDS011;29470;53.550;9.926;2023-07-09T03:10:17;6.70;;;3.85;;
43823;SDS011;29470;53.550;9.926;2023-07-09T03:15:20;5.78;;;3.83;;
43823;SDS011;29470;53.550;9.926;2023-07-09T03:20:23;5.05;;;3.40;;
43823;SDS011;29470;53.550;9.926;2023-07-09T03:25:27;5.80;;;3.50;;
43823;SDS011;29470;53.550;9.926;2023-07-09T03:30:30;8.52;;;3.30;;
43823;SDS011;29470;53.550;9.926;2023-07-09T03:35:33;5.22;;;3.00;;
43823;SDS011;29470;53.550;9.926;2023-07-09T03:40:39;4.88;;;3.13;;
43823;SDS011;29470;53.550;9.926;2023-07-09T03:45:41;11.88;;;3.42;;
43823;SDS011;29470;53.550;9.926;2023-07-09T03:50:47;5.43;;;2.90;;
43823;SDS011;29470;53.550;9.926;2023-07-09T03:55:54;4.30;;;2.80;;
43823;SDS011;29470;53.550;9.926;2023-07-09T04:00:58;5.40;;;3.38;;
43823;SDS011;29470;53.550;9.926;2023-07-09T04:06:01;5.28;;;2.95;;
43823;SDS011;29470;53.550;9.926;2023-07-09T04:11:05;4.35;;;3.08;;
43823;SDS011;29470;53.550;9.926;2023-07-09T04:16:09;5.65;;;2.97;;
43823;SDS011;29470;53.550;9.926;2023-07-09T04:21:13;4.25;;;2.80;;
43823;SDS011;29470;53.550;9.926;2023-07-09T04:26:17;5.45;;;3.25;;
43823;SDS011;29470;53.550;9.926;2023-07-09T04:31:20;7.15;;;2.85;;
43823;SDS011;29470;53.550;9.926;2023-07-09T04:36:23;4.30;;;2.65;;
43823;SDS011;29470;53.550;9.926;2023-07-09T04:41:28;4.55;;;2.90;;
43823;SDS011;29470;53.550;9.926;2023-07-09T04:46:31;4.93;;;3.50;;
43823;SDS011;29470;53.550;9.926;2023-07-09T04:51:34;5.00;;;2.78;;
43823;SDS011;29470;53.550;9.926;2023-07-09T04:56:38;4.55;;;3.13;;
43823;SDS011;29470;53.550;9.926;2023-07-09T05:01:41;4.28;;;2.95;;
43823;SDS011;29470;53.550;9.926;2023-07-09T05:06:44;5.93;;;3.00;;
43823;SDS011;29470;53.550;9.926;2023-07-09T05:11:49;5.72;;;2.80;;
43823;SDS011;29470;53.550;9.926;2023-07-09T05:16:53;3.97;;;2.53;;
43823;SDS011;29470;53.550;9.926;2023-07-09T05:21:55;4.07;;;3.00;;
43823;SDS011;29470;53.550;9.926;2023-07-09T05:27:00;5.15;;;3.08;;
43823;SDS011;29470;53.550;9.926;2023-07-09T05:32:03;5.88;;;3.30;;
43823;SDS011;29470;53.550;9.926;2023-07-09T05:37:06;4.43;;;2.83;;
43823;SDS011;29470;53.550;9.926;2023-07-09T05:42:10;4.22;;;2.90;;
43823;SDS011;29470;53.550;9.926;2023-07-09T05:47:13;6.28;;;3.20;;
43823;SDS011;29470;53.550;9.926;2023-07-09T05:52:16;8.43;;;3.38;;
43823;SDS011;29470;53.550;9.926;2023-07-09T05:57:20;7.13;;;3.70;;
43823;SDS011;29470;53.550;9.926;2023-07-09T06:02:23;6.10;;;3.50;;
43823;SDS011;29470;53.550;9.926;2023-07-09T06:07:27;5.07;;;3.60;;
43823;SDS011;29470;53.550;9.926;2023-07-09T06:12:31;5.13;;;3.20;;
43823;SDS011;29470;53.550;9.926;2023-07-09T06:17:34;4.68;;;2.95;;
43823;SDS011;29470;53.550;9.926;2023-07-09T06:22:37;6.60;;;3.15;;
43823;SDS011;29470;53.550;9.926;2023-07-09T06:27:41;5.47;;;3.35;;
43823;SDS011;29470;53.550;9.926;2023-07-09T06:32:43;8.00;;;3.63;;
43823;SDS011;29470;53.550;9.926;2023-07-09T06:37:46;5.95;;;3.70;;
43823;SDS011;29470;53.550;9.926;2023-07-09T06:42:51;6.95;;;3.50;;
43823;SDS011;29470;53.550;9.926;2023-07-09T06:47:59;4.10;;;3.60;;
43823;SDS011;29470;53.550;9.926;2023-07-09T06:53:02;5.70;;;3.30;;
43823;SDS011;29470;53.550;9.926;2023-07-09T06:58:06;6.07;;;3.10;;
43823;SDS011;29470;53.550;9.926;2023-07-09T07:03:09;5.40;;;3.25;;
43823;SDS011;29470;53.550;9.926;2023-07-09T07:08:13;6.10;;;3.67;;
43823;SDS011;29470;53.550;9.926;2023-07-09T07:13:18;5.03;;;3.55;;
43823;SDS011;29470;53.550;9.926;2023-07-09T07:18:21;4.25;;;3.13;;
43823;SDS011;29470;53.550;9.926;2023-07-09T07:23:24;5.80;;;3.40;;
43823;SDS011;29470;53.550;9.926;2023-07-09T07:28:29;4.50;;;3.00;;
43823;SDS011;29470;53.550;9.926;2023-07-09T07:33:31;6.95;;;3.50;;
43823;SDS011;29470;53.550;9.926;2023-07-09T07:38:34;4.95;;;3.17;;
43823;SDS011;29470;53.550;9.926;2023-07-09T07:43:38;6.97;;;3.22;;
43823;SDS011;29470;53.550;9.926;2023-07-09T07:48:41;4.63;;;3.10;;
43823;SDS011;29470;53.550;9.926;2023-07-09T07:53:44;5.20;;;2.95;;
43823;SDS011;29470;53.550;9.926;2023-07-09T07:58:48;5.85;;;3.25;;
43823;SDS011;29470;53.550;9.926;2023-07-09T08:03:52;5.22;;;3.30;;
43823;SDS011;29470;53.550;9.926;2023-07-09T08:08:55;5.68;;;3.47;;
43823;SDS011;29470;53.550;9.926;2023-07-09T08:13:59;4.93;;;3.40;;
43823;SDS011;29470;53.550;9.926;2023-07-09T08:19:03;6.70;;;3.95;;
43823;SDS011;29470;53.550;9.926;2023-07-09T08:24:06;4.43;;;3.38;;
43823;SDS011;29470;53.550;9.926;2023-07-09T08:29:12;5.03;;;3.72;;
43823;SDS011;29470;53.550;9.926;2023-07-09T08:34:15;8.02;;;3.85;;
43823;SDS011;29470;53.550;9.926;2023-07-09T08:39:18;5.55;;;3.80;;
43823;SDS011;29470;53.550;9.926;2023-07-09T08:44:26;6.35;;;4.32;;
43823;SDS011;29470;53.550;9.926;2023-07-09T08:49:57;8.20;;;4.10;;
43823;SDS011;29470;53.550;9.926;2023-07-09T08:55:05;6.57;;;4.30;;
43823;SDS011;29470;53.550;9.926;2023-07-09T09:00:14;6.53;;;4.37;;
43823;SDS011;29470;53.550;9.926;2023-07-09T09:05:20;7.38;;;4.30;;
43823;SDS011;29470;53.550;9.926;2023-07-09T09:10:27;6.97;;;4.30;;
43823;SDS011;29470;53.550;9.926;2023-07-09T09:15:37;5.63;;;4.53;;
43823;SDS011;29470;53.550;9.926;2023-07-09T09:20:52;5.78;;;4.05;;
43823;SDS011;29470;53.550;9.926;2023-07-09T09:25:58;5.82;;;4.60;;
43823;SDS011;29470;53.550;9.926;2023-07-09T09:31:15;7.65;;;4.40;;
43823;SDS011;29470;53.550;9.926;2023-07-09T09:36:20;5.57;;;4.15;;
43823;SDS011;29470;53.550;9.926;2023-07-09T09:41:30;7.85;;;4.35;;
43823;SDS011;29470;53.550;9.926;2023-07-09T09:46:36;6.22;;;4.25;;
43823;SDS011;29470;53.550;9.926;2023-07-09T09:51:40;8.52;;;4.70;;
43823;SDS011;29470;53.550;9.926;2023-07-09T09:56:47;6.32;;;4.47;;
43823;SDS011;29470;53.550;9.926;2023-07-09T10:01:57;6.13;;;4.78;;
43823;SDS011;29470;53.550;9.926;2023-07-09T10:07:03;4.72;;;4.10;;
43823;SDS011;29470;53.550;9.926;2023-07-09T10:17:38;6.37;;;4.30;;
43823;SDS011;29470;53.550;9.926;2023-07-09T10:22:48;5.40;;;4.35;;
43823;SDS011;29470;53.550;9.926;2023-07-09T10:27:59;7.55;;;4.82;;
43823;SDS011;29470;53.550;9.926;2023-07-09T10:33:23;7.63;;;4.60;;
43823;SDS011;29470;53.550;9.926;2023-07-09T10:38:39;5.93;;;4.28;;
43823;SDS011;29470;53.550;9.926;2023-07-09T10:43:54;6.53;;;4.72;;
43823;SDS011;29470;53.550;9.926;2023-07-09T10:49:03;5.25;;;4.43;;
43823;SDS011;29470;53.550;9.926;2023-07-09T10:54:10;7.18;;;4.53;;
43823;SDS011;29470;53.550;9.926;2023-07-09T10:59:22;5.82;;;4.55;;
43823;SDS011;29470;53.550;9.926;2023-07-09T11:04:33;6.53;;;4.57;;
43823;SDS011;29470;53.550;9.926;2023-07-09T11:09:42;6.72;;;4.68;;
43823;SDS011;29470;53.550;9.926;2023-07-09T11:14:50;8.63;;;4.70;;
43823;SDS011;29470;53.550;9.926;2023-07-09T11:19:58;7.55;;;4.55;;
43823;SDS011;29470;53.550;9.926;2023-07-09T11:25:06;5.90;;;4.63;;
43823;SDS011;29470;53.550;9.926;2023-07-09T11:30:18;5.55;;;4.30;;
43823;SDS011;29470;53.550;9.926;2023-07-09T11:35:24;7.30;;;4.70;;
43823;SDS011;29470;53.550;9.926;2023-07-09T11:40:28;6.77;;;4.33;;
43823;SDS011;29470;53.550;9.926;2023-07-09T11:45:32;7.80;;;4.75;;
43823;SDS011;29470;53.550;9.926;2023-07-09T11:50:38;4.70;;;4.10;;
43823;SDS011;29470;53.550;9.926;2023-07-09T11:55:44;5.30;;;4.20;;
43823;SDS011;29470;53.550;9.926;2023-07-09T12:00:49;5.75;;;4.28;;
43823;SDS011;29470;53.550;9.926;2023-07-09T12:05:55;5.38;;;4.43;;
43823;SDS011;29470;53.550;9.926;2023-07-09T12:11:02;5.60;;;4.35;;
43823;SDS011;29470;53.550;9.926;2023-07-09T12:16:17;4.70;;;4.20;;
43823;SDS011;29470;53.550;9.926;2023-07-09T12:21:25;5.63;;;4.43;;
43823;SDS011;29470;53.550;9.926;2023-07-09T12:26:30;5.32;;;4.47;;
43823;SDS011;29470;53.550;9.926;2023-07-09T12:31:33;7.47;;;4.53;;
43823;SDS011;29470;53.550;9.926;2023-07-09T12:36:38;6.60;;;4.82;;
43823;SDS011;29470;53.550;9.926;2023-07-09T12:41:44;7.45;;;4.78;;
43823;SDS011;29470;53.550;9.926;2023-07-09T12:46:48;5.28;;;4.50;;
43823;SDS011;29470;53.550;9.926;2023-07-09T12:51:54;6.05;;;4.85;;
43823;SDS011;29470;53.550;9.926;2023-07-09T12:56:58;5.43;;;4.40;;
43823;SDS011;29470;53.550;9.926;2023-07-09T13:02:02;6.05;;;4.20;;
43823;SDS011;29470;53.550;9.926;2023-07-09T13:07:29;5.68;;;4.30;;
43823;SDS011;29470;53.550;9.926;2023-07-09T13:12:38;5.30;;;4.45;;
43823;SDS011;29470;53.550;9.926;2023-07-09T13:17:41;7.30;;;4.80;;
43823;SDS011;29470;53.550;9.926;2023-07-09T13:22:46;7.07;;;4.93;;
43823;SDS011;29470;53.550;9.926;2023-07-09T13:27:49;5.22;;;4.20;;
43823;SDS011;29470;53.550;9.926;2023-07-09T13:32:54;5.28;;;4.78;;
43823;SDS011;29470;53.550;9.926;2023-07-09T13:37:59;11.13;;;4.85;;
43823;SDS011;29470;53.550;9.926;2023-07-09T13:43:02;7.50;;;4.80;;
43823;SDS011;29470;53.550;9.926;2023-07-09T13:48:07;5.57;;;4.47;;
43823;SDS011;29470;53.550;9.926;2023-07-09T13:53:17;7.03;;;5.07;;
43823;SDS011;29470;53.550;9.926;2023-07-09T13:58:22;5.20;;;4.55;;
43823;SDS011;29470;53.550;9.926;2023-07-09T14:03:28;9.18;;;4.78;;
43823;SDS011;29470;53.550;9.926;2023-07-09T14:08:35;5.35;;;4.65;;
43823;SDS011;29470;53.550;9.926;2023-07-09T14:13:38;4.97;;;4.28;;
43823;SDS011;29470;53.550;9.926;2023-07-09T14:18:42;5.72;;;4.53;;
43823;SDS011;29470;53.550;9.926;2023-07-09T14:23:46;5.63;;;4.78;;
43823;SDS011;29470;53.550;9.926;2023-07-09T14:28:49;6.10;;;4.40;;
43823;SDS011;29470;53.550;9.926;2023-07-09T14:33:52;6.78;;;5.22;;
43823;SDS011;29470;53.550;9.926;2023-07-09T14:38:56;7.93;;;4.93;;
43823;SDS011;29470;53.550;9.926;2023-07-09T14:43:59;6.45;;;4.75;;
43823;SDS011;29470;53.550;9.926;2023-07-09T14:49:02;9.63;;;5.35;;
43823;SDS011;29470;53.550;9.926;2023-07-09T14:54:09;10.20;;;5.72;;
43823;SDS011;29470;53.550;9.926;2023-07-09T14:59:22;8.02;;;5.63;;
43823;SDS011;29470;53.550;9.926;2023-07-09T15:04:27;8.90;;;5.07;;
43823;SDS011;29470;53.550;9.926;2023-07-09T15:09:36;6.13;;;4.57;;
43823;SDS011;29470;53.550;9.926;2023-07-09T15:19:42;6.45;;;4.68;;
43823;SDS011;29470;53.550;9.926;2023-07-09T15:24:46;8.85;;;4.70;;
43823;SDS011;29470;53.550;9.926;2023-07-09T15:29:49;6.43;;;4.60;;
43823;SDS011;29470;53.550;9.926;2023-07-09T15:34:52;7.10;;;4.75;;
43823;SDS011;29470;53.550;9.926;2023-07-09T15:39:56;7.25;;;4.82;;
43823;SDS011;29470;53.550;9.926;2023-07-09T15:44:59;6.43;;;4.65;;
43823;SDS011;29470;53.550;9.926;2023-07-09T15:50:04;7.25;;;5.10;;
43823;SDS011;29470;53.550;9.926;2023-07-09T15:55:17;7.53;;;4.50;;
43823;SDS011;29470;53.550;9.926;2023-07-09T16:00:22;6.65;;;4.78;;
43823;SDS011;29470;53.550;9.926;2023-07-09T16:10:33;7.72;;;4.97;;
43823;SDS011;29470;53.550;9.926;2023-07-09T16:15:36;8.35;;;5.22;;
43823;SDS011;29470;53.550;9.926;2023-07-09T16:20:39;6.47;;;4.82;;
43823;SDS011;29470;53.550;9.926;2023-07-09T16:25:43;6.75;;;4.95;;
43823;SDS011;29470;53.550;9.926;2023-07-09T16:30:46;8.52;;;5.80;;
43823;SDS011;29470;53.550;9.926;2023-07-09T16:35:52;9.07;;;5.10;;
43823;SDS011;29470;53.550;9.926;2023-07-09T16:40:57;8.30;;;5.55;;
43823;SDS011;29470;53.550;9.926;2023-07-09T16:46:01;7.32;;;4.78;;
43823;SDS011;29470;53.550;9.926;2023-07-09T16:51:04;9.00;;;5.22;;
43823;SDS011;29470;53.550;9.926;2023-07-09T16:56:09;7.63;;;5.22;;
43823;SDS011;29470;53.550;9.926;2023-07-09T17:01:13;7.30;;;5.67;;
43823;SDS011;29470;53.550;9.926;2023-07-09T17:06:16;6.47;;;5.00;;
43823;SDS011;29470;53.550;9.926;2023-07-09T17:11:20;8.95;;;6.13;;
43823;SDS011;29470;53.550;9.926;2023-07-09T17:16:23;10.85;;;5.75;;
43823;SDS011;29470;53.550;9.926;2023-07-09T17:21:26;7.85;;;6.20;;
43823;SDS011;29470;53.550;9.926;2023-07-09T17:26:30;7.63;;;6.00;;
43823;SDS011;29470;53.550;9.926;2023-07-09T17:31:33;9.55;;;6.60;;
43823;SDS011;29470;53.550;9.926;2023-07-09T17:36:36;9.18;;;6.53;;
43823;SDS011;29470;53.550;9.926;2023-07-09T17:41:40;8.32;;;6.65;;
43823;SDS011;29470;53.550;9.926;2023-07-09T17:46:43;8.73;;;6.82;;
43823;SDS011;29470;53.550;9.926;2023-07-09T17:51:47;9.05;;;6.60;;
43823;SDS011;29470;53.550;9.926;2023-07-09T17:56:52;11.05;;;6.88;;
43823;SDS011;29470;53.550;9.926;2023-07-09T18:01:57;15.07;;;7.22;;
43823;SDS011;29470;53.550;9.926;2023-07-09T18:07:20;11.23;;;7.90;;
43823;SDS011;29470;53.550;9.926;2023-07-09T18:12:26;12.77;;;7.75;;
43823;SDS011;29470;53.550;9.926;2023-07-09T18:17:31;10.30;;;7.15;;
43823;SDS011;29470;53.550;9.926;2023-07-09T18:22:35;9.40;;;6.13;;
43823;SDS011;29470;53.550;9.926;2023-07-09T18:27:41;9.23;;;6.20;;
43823;SDS011;29470;53.550;9.926;2023-07-09T18:32:45;8.83;;;6.30;;
43823;SDS011;29470;53.550;9.926;2023-07-09T18:37:54;9.18;;;6.32;;
43823;SDS011;29470;53.550;9.926;2023-07-09T18:43:00;9.05;;;6.38;;
43823;SDS011;29470;53.550;9.926;2023-07-09T18:48:07;9.18;;;6.20;;
43823;SDS011;29470;53.550;9.926;2023-07-09T18:53:15;7.93;;;6.53;;
43823;SDS011;29470;53.550;9.926;2023-07-09T18:58:21;9.02;;;7.20;;
43823;SDS011;29470;53.550;9.926;2023-07-09T19:03:28;10.38;;;7.80;;
43823;SDS011;29470;53.550;9.926;2023-07-09T19:08:36;11.13;;;7.78;;
43823;SDS011;29470;53.550;9.926;2023-07-09T19:13:43;8.73;;;6.15;;
43823;SDS011;29470;53.550;9.926;2023-07-09T19:18:46;10.70;;;7.00;;
43823;SDS011;29470;53.550;9.926;2023-07-09T19:23:49;10.95;;;6.85;;
43823;SDS011;29470;53.550;9.926;2023-07-09T19:28:53;10.07;;;6.30;;
43823;SDS011;29470;53.550;9.926;2023-07-09T19:33:56;9.13;;;6.35;;
43823;SDS011;29470;53.550;9.926;2023-07-09T19:38:59;8.48;;;5.82;;
43823;SDS011;29470;53.550;9.926;2023-07-09T19:44:03;9.82;;;5.65;;
43823;SDS011;29470;53.550;9.926;2023-07-09T19:49:07;9.85;;;5.47;;
43823;SDS011;29470;53.550;9.926;2023-07-09T19:54:12;7.95;;;5.93;;
43823;SDS011;29470;53.550;9.926;2023-07-09T19:59:18;8.80;;;5.53;;
43823;SDS011;29470;53.550;9.926;2023-07-09T20:04:21;13.95;;;3.40;;
43823;SDS011;29470;53.550;9.926;2023-07-09T20:09:26;9.98;;;3.42;;
43823;SDS011;29470;53.550;9.926;2023-07-09T20:14:31;4.97;;;3.15;;
43823;SDS011;29470;53.550;9.926;2023-07-09T20:19:34;5.05;;;3.33;;
43823;SDS011;29470;53.550;9.926;2023-07-09T20:24:38;10.15;;;3.65;;
43823;SDS011;29470;53.550;9.926;2023-07-09T20:29:42;5.72;;;3.00;;
43823;SDS011;29470;53.550;9.926;2023-07-09T20:34:46;6.85;;;3.83;;
43823;SDS011;29470;53.550;9.926;2023-07-09T20:39:54;5.43;;;3.28;;
43823;SDS011;29470;53.550;9.926;2023-07-09T20:44:58;7.80;;;3.75;;
43823;SDS011;29470;53.550;9.926;2023-07-09T20:50:01;7.35;;;3.67;;
43823;SDS011;29470;53.550;9.926;2023-07-09T20:55:04;7.50;;;3.65;;
43823;SDS011;29470;53.550;9.926;2023-07-09T21:00:16;6.45;;;3.90;;
43823;SDS011;29470;53.550;9.926;2023-07-09T21:05:21;8.30;;;4.00;;
43823;SDS011;29470;53.550;9.926;2023-07-09T21:10:24;7.15;;;4.05;;
43823;SDS011;29470;53.550;9.926;2023-07-09T21:15:30;8.23;;;4.35;;
43823;SDS011;29470;53.550;9.926;2023-07-09T21:20:34;8.88;;;5.15;;
43823;SDS011;29470;53.550;9.926;2023-07-09T21:25:36;11.57;;;5.05;;
43823;SDS011;29470;53.550;9.926;2023-07-09T21:30:41;12.15;;;6.28;;
43823;SDS011;29470;53.550;9.926;2023-07-09T21:35:45;16.33;;;6.93;;
43823;SDS011;29470;53.550;9.926;2023-07-09T21:40:49;15.02;;;7.38;;
43823;SDS011;29470;53.550;9.926;2023-07-09T21:45:55;13.57;;;7.35;;
43823;SDS011;29470;53.550;9.926;2023-07-09T21:50:59;15.30;;;7.28;;
43823;SDS011;29470;53.550;9.926;2023-07-09T21:56:03;16.88;;;7.75;;
43823;SDS011;29470;53.550;9.926;2023-07-09T22:01:15;13.40;;;7.63;;
43823;SDS011;29470;53.550;9.926;2023-07-09T22:06:18;13.57;;;7.37;;
43823;SDS011;29470;53.550;9.926;2023-07-09T22:11:22;13.55;;;7.35;;
43823;SDS011;29470;53.550;9.926;2023-07-09T22:16:29;12.80;;;7.18;;
43823;SDS011;29470;53.550;9.926;2023-07-09T22:21:32;15.10;;;7.53;;
43823;SDS011;29470;53.550;9.926;2023-07-09T22:26:35;13.75;;;6.95;;
43823;SDS011;29470;53.550;9.926;2023-07-09T22:31:40;13.75;;;6.90;;
43823;SDS011;29470;53.550;9.926;2023-07-09T22:36:45;13.43;;;6.43;;
43823;SDS011;29470;53.550;9.926;2023-07-09T22:41:48;15.23;;;7.75;;
43823;SDS011;29470;53.550;9.926;2023-07-09T22:46:52;13.18;;;6.78;;
43823;SDS011;29470;53.550;9.926;2023-07-09T22:51:55;12.15;;;6.95;;
43823;SDS011;29470;53.550;9.926;2023-07-09T22:56:58;11.77;;;6.45;;
43823;SDS011;29470;53.550;9.926;2023-07-09T23:02:04;10.45;;;6.13;;
43823;SDS011;29470;53.550;9.926;2023-07-09T23:07:11;10.80;;;6.00;;
43823;SDS011;29470;53.550;9.926;2023-07-09T23:12:14;12.25;;;6.30;;
43823;SDS011;29470;53.550;9.926;2023-07-09T23:17:19;11.85;;;6.38;;
43823;SDS011;29470;53.550;9.926;2023-07-09T23:22:22;11.57;;;6.13;;
43823;SDS011;29470;53.550;9.926;2023-07-09T23:27:25;14.32;;;6.55;;
43823;SDS011;29470;53.550;9.926;2023-07-09T23:32:30;15.60;;;6.70;;
43823;SDS011;29470;53.550;9.926;2023-07-09T23:37:34;14.48;;;6.28;;
43823;SDS011;29470;53.550;9.926;2023-07-09T23:42:37;13.65;;;6.78;;
43823;SDS011;29470;53.550;9.926;2023-07-09T23:47:41;13.00;;;7.03;;
43823;SDS011;29470;53.550;9.926;2023-07-09T23:52:46;16.58;;;8.30;;
43823;SDS011;29470;53.550;9.926;2023-07-09T23:57:52;14.93;;;9.35;;
